createdAt,value
2019-04-05T00:02:52.859Z,15.70
2019-04-05T00:05:57.769Z,13.63
2019-04-05T00:09:02.920Z,16.87
2019-04-05T00:12:07.909Z,15.17
2019-04-05T00:15:15.623Z,14.63
2019-04-05T00:18:19.648Z,14.87
2019-04-05T00:21:24.645Z,15.30
2019-04-05T00:24:29.666Z,14.87
2019-04-05T00:27:34.669Z,14.40
2019-04-05T00:30:39.621Z,15.17
2019-04-05T00:33:44.550Z,15.53
2019-04-05T00:36:49.556Z,15.87
2019-04-05T00:39:54.474Z,14.80
2019-04-05T00:42:59.405Z,15.80
2019-04-05T00:46:04.460Z,15.47
2019-04-05T00:49:09.465Z,14.87
2019-04-05T00:52:14.539Z,16.10
2019-04-05T00:55:19.615Z,15.43
2019-04-05T00:58:24.703Z,13.93
2019-04-05T01:01:29.776Z,14.13
2019-04-05T01:04:34.857Z,14.87
2019-04-05T01:07:40.072Z,15.70
2019-04-05T01:10:45.257Z,14.70
2019-04-05T01:13:51.889Z,14.00
2019-04-05T01:16:57.547Z,15.03
2019-04-05T01:20:04.249Z,15.60
2019-04-05T01:23:12.124Z,14.77
2019-04-05T01:26:19.471Z,14.57
2019-04-05T01:29:25.053Z,17.13
2019-04-05T01:32:30.198Z,14.87
2019-04-05T01:35:35.269Z,15.47
2019-04-05T01:38:40.335Z,15.90
2019-04-05T01:41:46.203Z,16.27
2019-04-05T01:44:52.006Z,15.57
2019-04-05T01:47:57.241Z,16.67
2019-04-05T01:51:02.316Z,17.30
2019-04-05T01:54:07.399Z,17.63
2019-04-05T01:57:12.442Z,16.77
2019-04-05T02:00:17.944Z,16.60
2019-04-05T02:03:22.936Z,15.90
2019-04-05T02:06:27.945Z,15.40
2019-04-05T02:09:33.221Z,16.37
2019-04-05T02:12:38.540Z,17.90
2019-04-05T02:15:43.626Z,18.33
2019-04-05T02:18:48.693Z,16.90
2019-04-05T02:21:55.328Z,17.93
2019-04-05T02:25:00.425Z,17.80
2019-04-05T02:28:05.493Z,15.80
2019-04-05T02:31:10.588Z,18.77
2019-04-05T02:34:15.963Z,17.40
2019-04-05T02:37:21.046Z,20.00
2019-04-05T02:40:28.339Z,17.73
2019-04-05T02:43:35.062Z,19.20
2019-04-05T02:46:41.846Z,17.50
2019-04-05T02:49:47.433Z,17.67
2019-04-05T02:53:13.085Z,20.40
2019-04-05T02:56:18.851Z,19.20
2019-04-05T02:59:25.861Z,20.53
2019-04-05T03:02:31.746Z,19.87
2019-04-05T03:05:38.327Z,20.10
2019-04-05T03:08:43.805Z,19.00
2019-04-05T03:11:49.273Z,20.27
2019-04-05T03:14:54.745Z,21.20
2019-04-05T03:17:59.653Z,18.97
2019-04-05T03:21:07.385Z,20.30
2019-04-05T03:24:16.691Z,19.53
2019-04-05T03:27:26.486Z,20.40
2019-04-05T03:30:31.587Z,21.43
2019-04-05T03:33:37.084Z,21.10
2019-04-05T03:36:42.322Z,21.00
2019-04-05T03:39:47.457Z,21.97
2019-04-05T03:42:52.540Z,23.53
2019-04-05T03:45:57.706Z,20.97
2019-04-05T03:49:04.698Z,21.47
2019-04-05T03:52:10.107Z,21.50
2019-04-05T03:55:15.104Z,21.63
2019-04-05T03:58:20.682Z,22.20
2019-04-05T04:01:25.761Z,21.17
2019-04-05T04:04:31.277Z,24.73
2019-04-05T04:07:36.355Z,23.30
2019-04-05T04:10:41.636Z,23.47
2019-04-05T04:13:47.334Z,22.90
2019-04-05T04:16:53.483Z,23.23
2019-04-05T04:19:58.777Z,25.20
2019-04-05T04:23:05.323Z,25.30
2019-04-05T04:26:10.431Z,23.80
2019-04-05T04:29:15.522Z,25.90
2019-04-05T04:32:20.581Z,22.50
2019-04-05T04:35:26.044Z,23.67
2019-04-05T04:38:31.123Z,26.00
2019-04-05T04:41:36.225Z,26.33
2019-04-05T04:44:42.486Z,24.80
2019-04-05T04:47:47.561Z,24.77
2019-04-05T04:50:53.031Z,25.73
2019-04-05T04:53:58.921Z,25.80
2019-04-05T04:57:04.317Z,25.60
2019-04-05T05:00:09.313Z,24.07
2019-04-05T05:03:14.386Z,26.10
2019-04-05T05:06:19.744Z,25.83
2019-04-05T05:09:24.817Z,23.80
2019-04-05T05:12:30.088Z,23.70
2019-04-05T05:15:35.887Z,24.80
2019-04-05T05:18:42.042Z,26.97
2019-04-05T05:21:47.438Z,26.63
2019-04-05T05:24:52.520Z,25.77
2019-04-05T05:27:57.901Z,23.40
2019-04-05T05:31:03.473Z,25.07
2019-04-05T05:34:08.550Z,24.33
2019-04-05T05:37:13.892Z,25.10
2019-04-05T05:40:19.405Z,23.70
2019-04-05T05:43:24.473Z,26.67
2019-04-05T05:46:29.537Z,26.00
2019-04-05T05:49:34.542Z,28.17
2019-04-05T05:52:40.322Z,26.67
2019-04-05T05:55:45.328Z,24.23
2019-04-05T05:58:50.242Z,27.00
2019-04-05T06:01:55.165Z,23.90
2019-04-05T06:05:00.108Z,24.90
2019-04-05T06:08:05.117Z,24.93
2019-04-05T06:11:10.131Z,25.53
2019-04-05T06:14:15.068Z,26.23
2019-04-05T06:17:20.096Z,21.93
2019-04-05T06:20:25.188Z,21.47
2019-04-05T06:26:36.908Z,25.23
2019-04-05T06:29:41.914Z,21.37
2019-04-05T06:32:46.928Z,21.27
2019-04-05T06:35:39.524Z,22.77
2019-04-05T06:35:51.905Z,19.60
2019-04-05T06:38:56.835Z,19.30
2019-04-05T06:42:01.854Z,19.73
2019-04-05T06:45:07.081Z,18.60
2019-04-05T06:48:19.035Z,18.63
2019-04-05T06:51:18.773Z,17.37
2019-04-05T06:54:23.785Z,18.37
2019-04-05T06:57:28.784Z,17.70
2019-04-05T07:00:33.793Z,18.07
2019-04-05T07:03:38.871Z,19.93
2019-04-05T07:06:43.811Z,18.00
2019-04-05T07:09:48.714Z,19.20
2019-04-05T07:12:53.793Z,17.57
2019-04-05T07:15:58.868Z,18.40
2019-04-05T07:19:03.883Z,16.97
2019-04-05T07:22:08.951Z,17.10
2019-04-05T07:25:14.057Z,16.97
2019-04-05T07:28:19.082Z,16.00
2019-04-05T07:31:24.106Z,16.40
2019-04-05T07:34:29.017Z,16.40
2019-04-05T07:37:34.045Z,17.47
2019-04-05T07:40:38.974Z,18.27
2019-04-05T07:43:45.271Z,16.63
2019-04-05T07:46:50.250Z,15.13
2019-04-05T07:49:55.232Z,18.07
2019-04-05T07:53:00.243Z,15.73
2019-04-05T07:56:05.313Z,16.77
2019-04-05T07:59:10.396Z,17.60
2019-04-05T08:02:15.467Z,18.37
2019-04-05T08:05:20.388Z,17.17
2019-04-05T08:08:41.015Z,17.07
2019-04-05T08:11:47.081Z,18.50
2019-04-05T08:14:52.385Z,15.83
2019-04-05T08:17:57.311Z,15.20
2019-04-05T08:21:02.381Z,15.17
2019-04-05T08:24:07.455Z,16.20
2019-04-05T08:27:12.390Z,16.87
2019-04-05T08:30:17.490Z,14.87
2019-04-05T08:33:22.479Z,13.80
2019-04-05T08:36:27.505Z,18.00
2019-04-05T08:39:32.422Z,18.33
2019-04-05T08:42:37.346Z,16.80
2019-04-05T08:45:42.350Z,16.00
2019-04-05T08:48:47.419Z,15.80
2019-04-05T08:51:52.345Z,14.67
2019-04-05T08:54:57.337Z,15.80
2019-04-05T08:58:02.418Z,15.57
2019-04-05T09:01:07.426Z,16.63
2019-04-05T09:04:12.393Z,16.23
2019-04-05T09:07:17.317Z,16.83
2019-04-05T09:10:22.332Z,16.57
2019-04-05T09:13:27.347Z,16.63
2019-04-05T09:16:32.337Z,17.73
2019-04-05T09:19:37.335Z,17.67
2019-04-05T09:22:42.271Z,19.07
2019-04-05T09:25:47.189Z,17.70
2019-04-05T09:28:52.128Z,17.27
2019-04-05T09:31:57.044Z,16.23
2019-04-05T09:35:02.043Z,17.20
2019-04-05T09:38:07.153Z,17.03
2019-04-05T09:41:12.155Z,16.83
2019-04-05T09:44:17.234Z,15.80
2019-04-05T09:47:22.226Z,16.70
2019-04-05T09:50:27.307Z,17.47
2019-04-05T09:53:32.391Z,17.07
2019-04-05T09:56:37.413Z,18.53
2019-04-05T09:59:42.337Z,17.57
2019-04-05T10:02:47.277Z,17.53
2019-04-05T10:05:52.263Z,18.50
2019-04-05T10:08:57.206Z,19.37
2019-04-05T10:12:02.265Z,18.80
2019-04-05T10:15:07.618Z,19.00
2019-04-05T10:18:12.613Z,18.70
2019-04-05T10:21:17.551Z,20.80
2019-04-05T10:24:22.474Z,20.50
2019-04-05T10:27:27.657Z,20.10
2019-04-05T10:30:32.725Z,19.40
2019-04-05T10:33:37.694Z,20.37
2019-04-05T10:36:42.686Z,20.60
2019-04-05T10:39:47.689Z,21.27
2019-04-05T10:42:52.669Z,21.07
2019-04-05T10:45:57.766Z,21.00
2019-04-05T10:49:02.843Z,20.77
2019-04-05T10:52:07.837Z,21.83
2019-04-05T10:55:13.212Z,21.97
2019-04-05T10:58:18.221Z,21.80
2019-04-05T11:01:23.209Z,22.03
2019-04-05T11:04:28.230Z,20.40
2019-04-05T11:07:35.092Z,20.60
2019-04-05T11:10:39.881Z,20.90
2019-04-05T11:13:44.821Z,20.97
2019-04-05T11:16:58.277Z,21.03
2019-04-05T11:19:56.458Z,22.10
2019-04-05T11:23:01.470Z,19.37
2019-04-05T11:26:06.590Z,18.47
2019-04-05T11:29:14.107Z,18.63
2019-04-05T11:32:18.331Z,18.90
2019-04-05T11:35:23.418Z,17.87
2019-04-05T11:38:28.783Z,16.73
2019-04-05T11:41:36.747Z,17.10
2019-04-05T11:44:43.033Z,18.20
2019-04-05T11:47:48.933Z,18.13
2019-04-05T11:50:53.963Z,18.80
2019-04-05T11:53:58.901Z,16.83
2019-04-05T11:57:03.941Z,18.13
2019-04-05T12:00:13.050Z,58.17
2019-04-05T12:03:18.376Z,19.53
2019-04-05T12:06:23.309Z,17.30
2019-04-05T12:09:28.308Z,18.60
2019-04-05T12:12:33.282Z,17.37
2019-04-05T12:15:38.365Z,17.87
2019-04-05T12:18:43.374Z,16.67
2019-04-05T12:21:48.313Z,17.07
2019-04-05T12:24:53.313Z,17.03
2019-04-05T12:28:06.201Z,17.77
2019-04-05T12:31:05.414Z,18.17
2019-04-05T12:34:10.437Z,17.63
2019-04-05T12:37:15.402Z,18.77
2019-04-05T12:40:20.469Z,17.60
2019-04-05T12:43:25.502Z,16.83
2019-04-05T12:46:30.577Z,17.70
2019-04-05T12:49:35.578Z,17.40
2019-04-05T12:52:40.501Z,18.47
2019-04-05T12:55:45.595Z,18.53
2019-04-05T12:58:50.535Z,19.30
2019-04-05T13:01:55.482Z,17.53
2019-04-05T13:05:00.439Z,18.93
2019-04-05T13:08:05.618Z,18.30
2019-04-05T13:11:10.587Z,18.57
2019-04-05T13:14:15.510Z,19.47
2019-04-05T13:17:20.518Z,18.33
2019-04-05T13:20:25.512Z,17.50
2019-04-05T13:23:30.459Z,16.53
2019-04-05T13:26:36.916Z,19.30
2019-04-05T13:29:42.046Z,16.27
2019-04-05T13:32:46.998Z,19.17
2019-04-05T13:35:52.074Z,19.40
2019-04-05T13:38:59.531Z,19.50
2019-04-05T13:42:04.068Z,18.17
2019-04-05T13:45:09.465Z,17.43
2019-04-05T13:48:14.392Z,19.90
2019-04-05T13:51:27.726Z,19.80
2019-04-05T13:54:25.967Z,18.47
2019-04-05T13:57:30.984Z,20.43
2019-04-05T14:00:36.047Z,19.83
2019-04-05T14:03:41.062Z,17.43
2019-04-05T14:06:46.074Z,18.87
2019-04-05T14:09:51.086Z,17.80
2019-04-05T14:12:56.102Z,21.00
2019-04-05T14:16:01.193Z,16.67
2019-04-05T14:19:06.284Z,23.03
2019-04-05T14:22:11.296Z,20.17
2019-04-05T14:25:16.472Z,19.37
2019-04-05T14:28:21.497Z,19.87
2019-04-05T14:31:26.565Z,18.73
2019-04-05T14:34:31.617Z,18.23
2019-04-05T14:37:36.617Z,17.53
2019-04-05T14:40:41.724Z,17.47
2019-04-05T14:43:46.797Z,18.70
2019-04-05T14:46:52.193Z,19.57
2019-04-05T14:49:58.297Z,18.90
2019-04-05T14:53:04.379Z,20.60
2019-04-05T14:56:09.373Z,17.30
2019-04-05T14:59:14.309Z,19.60
2019-04-05T15:02:19.312Z,18.33
2019-04-05T15:05:24.409Z,18.43
2019-04-05T15:08:29.459Z,18.30
2019-04-05T15:11:34.518Z,18.97
2019-04-05T15:14:39.448Z,18.63
2019-04-05T15:17:48.184Z,18.73
2019-04-05T15:20:51.170Z,17.57
2019-04-05T15:23:56.107Z,17.77
2019-04-05T15:27:01.107Z,19.30
2019-04-05T15:30:06.836Z,17.67
2019-04-05T15:33:11.775Z,19.53
2019-04-05T15:36:16.720Z,19.73
2019-04-05T15:39:22.023Z,18.90
2019-04-05T15:42:26.954Z,18.33
2019-04-05T15:45:34.821Z,19.90
2019-04-05T15:48:40.118Z,17.90
2019-04-05T15:51:45.058Z,19.17
2019-04-05T15:54:50.070Z,31.10
2019-04-05T15:57:54.993Z,20.00
2019-04-05T16:01:00.151Z,16.57
2019-04-05T16:04:05.838Z,17.90
2019-04-05T16:07:10.860Z,17.27
2019-04-05T16:10:16.409Z,17.53
2019-04-05T16:13:21.407Z,17.53
2019-04-05T16:16:27.069Z,18.90
2019-04-05T16:19:32.077Z,17.83
2019-04-05T16:22:37.007Z,17.87
2019-04-05T16:25:42.094Z,19.37
2019-04-05T16:28:47.172Z,19.17
2019-04-05T16:31:52.113Z,17.87
2019-04-05T16:34:57.127Z,18.37
2019-04-05T16:38:02.041Z,17.77
2019-04-05T16:41:06.996Z,18.23
2019-04-05T16:44:12.053Z,18.90
2019-04-05T16:47:17.007Z,18.80
2019-04-05T16:50:22.081Z,18.67
2019-04-05T16:53:27.159Z,18.90
2019-04-05T16:56:32.354Z,19.30
2019-04-05T16:59:37.423Z,19.27
2019-04-05T17:02:42.497Z,17.77
2019-04-05T17:05:47.714Z,17.73
2019-04-05T17:08:53.207Z,19.00
2019-04-05T17:11:58.217Z,19.63
2019-04-05T17:15:03.292Z,19.40
2019-04-05T17:18:08.309Z,19.90
2019-04-05T17:21:13.313Z,19.47
2019-04-05T17:24:18.256Z,18.50
2019-04-05T17:27:23.276Z,18.40
2019-04-05T17:30:28.369Z,18.53
2019-04-05T17:33:33.746Z,18.70
2019-04-05T17:36:39.031Z,21.13
2019-04-05T17:39:44.093Z,19.60
2019-04-05T17:42:49.108Z,22.93
2019-04-05T17:45:54.105Z,21.40
2019-04-05T17:48:59.306Z,21.43
2019-04-05T17:52:04.529Z,21.83
2019-04-05T17:55:09.811Z,21.93
2019-04-05T17:58:16.399Z,21.83
2019-04-05T18:01:21.480Z,20.80
2019-04-05T18:04:26.498Z,21.00
2019-04-05T18:07:31.435Z,21.10
2019-04-05T18:10:36.584Z,21.40
2019-04-05T18:13:41.534Z,20.90
2019-04-05T18:16:46.557Z,21.00
2019-04-05T18:19:51.626Z,21.40
2019-04-05T18:22:56.650Z,21.43
2019-04-05T18:26:01.662Z,21.90
2019-04-05T18:29:07.113Z,21.60
2019-04-05T18:32:12.648Z,21.70
2019-04-05T18:35:17.799Z,21.90
2019-04-05T18:38:22.730Z,32.30
2019-04-05T18:41:27.758Z,32.80
2019-04-05T18:44:32.819Z,24.90
2019-04-05T18:47:38.095Z,26.27
2019-04-05T18:50:43.157Z,26.90
2019-04-05T18:53:48.351Z,27.70
2019-04-05T18:56:53.462Z,23.40
2019-04-05T18:59:58.461Z,25.10
2019-04-05T19:03:04.433Z,25.37
2019-04-05T19:06:09.449Z,25.40
2019-04-05T19:09:14.477Z,23.80
2019-04-05T19:12:19.421Z,23.77
2019-04-05T19:15:24.353Z,23.13
2019-04-05T19:18:29.475Z,23.23
2019-04-05T19:21:34.380Z,22.67
2019-04-05T19:24:39.336Z,24.07
2019-04-05T19:27:44.283Z,24.70
2019-04-05T19:49:29.541Z,25.30
2019-04-05T19:52:34.470Z,22.97
2019-04-05T19:55:39.427Z,25.20
2019-04-05T19:58:44.457Z,24.27
2019-04-05T20:01:49.529Z,24.07
2019-04-05T20:04:54.540Z,24.97
2019-04-05T20:07:59.897Z,23.53
2019-04-05T20:11:05.329Z,25.10
2019-04-05T20:14:10.413Z,25.10
2019-04-05T20:17:15.358Z,24.80
2019-04-05T20:20:20.297Z,23.70
2019-04-05T20:23:25.241Z,23.37
2019-04-05T20:26:30.310Z,24.80
2019-04-05T20:29:35.331Z,25.10
2019-04-05T20:32:40.248Z,27.10
2019-04-05T20:35:45.179Z,24.50
2019-04-05T20:38:50.097Z,23.73
2019-04-05T20:41:55.125Z,25.03
2019-04-05T20:45:00.177Z,24.53
2019-04-05T20:48:05.183Z,24.40
2019-04-05T20:51:11.198Z,24.67
2019-04-05T20:54:24.255Z,24.90
2019-04-05T20:57:22.833Z,24.43
2019-04-05T21:00:27.962Z,24.50
2019-04-05T21:03:32.876Z,24.13
2019-04-05T21:06:37.829Z,24.67
2019-04-05T21:09:42.878Z,24.10
2019-04-05T21:12:47.941Z,26.23
2019-04-05T21:15:53.021Z,24.50
2019-04-05T21:18:58.269Z,24.87
2019-04-05T21:22:03.222Z,24.13
2019-04-05T21:25:08.305Z,23.63
2019-04-05T21:28:13.220Z,23.23
2019-04-05T21:31:18.161Z,27.17
2019-04-05T21:34:23.094Z,26.00
2019-04-05T21:37:28.025Z,25.10
2019-04-05T21:40:33.039Z,25.00
2019-04-05T21:43:38.035Z,26.00
2019-04-05T21:46:43.029Z,24.77
2019-04-05T21:49:48.020Z,27.20
2019-04-05T21:52:53.017Z,26.43
2019-04-05T21:55:58.016Z,25.83
2019-04-05T21:59:03.021Z,28.30
2019-04-05T22:02:08.272Z,28.67
2019-04-05T22:05:13.363Z,28.63
2019-04-05T22:08:18.373Z,26.83
2019-04-05T22:11:23.389Z,24.90
2019-04-05T22:14:28.318Z,26.47
2019-04-05T22:17:33.259Z,27.70
2019-04-05T22:20:38.176Z,27.57
2019-04-05T22:23:43.113Z,26.80
2019-04-05T22:26:48.045Z,26.97
2019-04-05T22:29:52.957Z,25.13
2019-04-05T22:32:57.961Z,25.60
2019-04-05T22:36:02.966Z,28.13
2019-04-05T22:39:08.270Z,26.03
2019-04-05T22:42:13.214Z,27.13
2019-04-05T22:45:18.261Z,26.70
2019-04-05T22:48:23.256Z,27.60
2019-04-05T22:51:28.204Z,28.60
2019-04-05T22:54:33.125Z,29.73
2019-04-05T22:57:38.046Z,27.67
2019-04-05T23:00:43.060Z,25.63
2019-04-05T23:03:48.003Z,27.23
2019-04-05T23:06:53.096Z,28.07
2019-04-05T23:09:58.162Z,27.10
2019-04-05T23:13:03.108Z,29.73
2019-04-05T23:16:08.185Z,27.43
2019-04-05T23:19:13.104Z,27.60
2019-04-05T23:22:18.045Z,26.10
2019-04-05T23:25:23.045Z,24.73
2019-04-05T23:28:27.986Z,25.93
2019-04-05T23:31:32.997Z,24.90
2019-04-05T23:34:38.065Z,25.27
2019-04-05T23:37:43.045Z,23.90
2019-04-05T23:40:48.037Z,26.57
2019-04-05T23:43:52.969Z,26.90
2019-04-05T23:46:58.169Z,25.80
2019-04-05T23:50:03.252Z,25.00
2019-04-05T23:53:08.272Z,27.77
2019-04-05T23:56:13.213Z,23.97
2019-04-05T23:59:18.146Z,24.80
